sensor_id;sensor_type;location;lat;lon;timestamp;P1;durP1;ratioP1;P2;durP2;ratioP2
12719;SDS011;6424;48.520;11.228;2022-08-11T00:00:20;2.73;;;2.13;;
12719;SDS011;6424;48.520;11.228;2022-08-11T00:02:56;2.30;;;1.80;;
12719;SDS011;6424;48.520;11.228;2022-08-11T00:05:52;3.77;;;2.07;;
12719;SDS011;6424;48.520;11.228;2022-08-11T00:08:35;2.30;;;2.03;;
12719;SDS011;6424;48.520;11.228;2022-08-11T00:11:17;3.33;;;2.20;;
12719;SDS011;6424;48.520;11.228;2022-08-11T00:14:00;2.60;;;2.40;;
12719;SDS011;6424;48.520;11.228;2022-08-11T00:16:43;3.73;;;2.33;;
12719;SDS011;6424;48.520;11.228;2022-08-11T00:19:34;3.93;;;2.33;;
12719;SDS011;6424;48.520;11.228;2022-08-11T00:22:19;2.60;;;2.40;;
12719;SDS011;6424;48.520;11.228;2022-08-11T00:25:11;3.57;;;2.50;;
12719;SDS011;6424;48.520;11.228;2022-08-11T00:27:59;2.17;;;2.07;;
12719;SDS011;6424;48.520;11.228;2022-08-11T00:30:40;2.17;;;1.97;;
12719;SDS011;6424;48.520;11.228;2022-08-11T00:33:21;2.40;;;2.03;;
12719;SDS011;6424;48.520;11.228;2022-08-11T00:36:04;5.70;;;2.80;;
12719;SDS011;6424;48.520;11.228;2022-08-11T00:38:48;2.60;;;2.30;;
12719;SDS011;6424;48.520;11.228;2022-08-11T00:50:17;4.40;;;2.33;;
12719;SDS011;6424;48.520;11.228;2022-08-11T01:02:05;4.70;;;2.43;;
12719;SDS011;6424;48.520;11.228;2022-08-11T01:14:16;2.83;;;2.40;;
12719;SDS011;6424;48.520;11.228;2022-08-11T01:29:27;2.33;;;2.13;;
12719;SDS011;6424;48.520;11.228;2022-08-11T01:56:26;3.43;;;2.53;;
12719;SDS011;6424;48.520;11.228;2022-08-11T02:05:09;3.10;;;2.80;;
12719;SDS011;6424;48.520;11.228;2022-08-11T02:07:59;3.03;;;2.73;;
12719;SDS011;6424;48.520;11.228;2022-08-11T02:11:04;4.77;;;3.07;;
12719;SDS011;6424;48.520;11.228;2022-08-11T02:14:22;2.60;;;2.40;;
12719;SDS011;6424;48.520;11.228;2022-08-11T02:19:51;5.17;;;2.80;;
12719;SDS011;6424;48.520;11.228;2022-08-11T02:32:04;4.53;;;2.80;;
12719;SDS011;6424;48.520;11.228;2022-08-11T02:35:28;6.27;;;3.07;;
12719;SDS011;6424;48.520;11.228;2022-08-11T02:38:32;4.13;;;2.80;;
12719;SDS011;6424;48.520;11.228;2022-08-11T02:48:09;3.77;;;2.93;;
12719;SDS011;6424;48.520;11.228;2022-08-11T02:51:23;3.20;;;2.90;;
12719;SDS011;6424;48.520;11.228;2022-08-11T02:54:12;4.10;;;3.00;;
12719;SDS011;6424;48.520;11.228;2022-08-11T02:56:50;3.33;;;3.03;;
12719;SDS011;6424;48.520;11.228;2022-08-11T03:11:41;3.47;;;3.17;;
12719;SDS011;6424;48.520;11.228;2022-08-11T03:14:48;3.97;;;3.20;;
12719;SDS011;6424;48.520;11.228;2022-08-11T03:21:19;4.53;;;3.00;;
12719;SDS011;6424;48.520;11.228;2022-08-11T03:24:07;4.27;;;3.27;;
12719;SDS011;6424;48.520;11.228;2022-08-11T03:30:10;6.27;;;3.53;;
12719;SDS011;6424;48.520;11.228;2022-08-11T03:39:08;5.07;;;3.20;;
12719;SDS011;6424;48.520;11.228;2022-08-11T03:48:02;4.13;;;3.47;;
12719;SDS011;6424;48.520;11.228;2022-08-11T04:00:38;4.60;;;3.00;;
12719;SDS011;6424;48.520;11.228;2022-08-11T04:03:49;4.37;;;3.40;;
12719;SDS011;6424;48.520;11.228;2022-08-11T04:28:31;6.17;;;3.00;;
12719;SDS011;6424;48.520;11.228;2022-08-11T04:31:43;4.30;;;2.97;;
12719;SDS011;6424;48.520;11.228;2022-08-11T04:34:54;3.63;;;3.20;;
12719;SDS011;6424;48.520;11.228;2022-08-11T04:42:06;3.90;;;2.87;;
12719;SDS011;6424;48.520;11.228;2022-08-11T04:58:31;2.70;;;2.50;;
12719;SDS011;6424;48.520;11.228;2022-08-11T05:10:38;4.33;;;2.73;;
12719;SDS011;6424;48.520;11.228;2022-08-11T05:19:44;3.07;;;2.50;;
12719;SDS011;6424;48.520;11.228;2022-08-11T05:22:48;3.10;;;2.80;;
12719;SDS011;6424;48.520;11.228;2022-08-11T05:25:51;4.53;;;3.20;;
12719;SDS011;6424;48.520;11.228;2022-08-11T05:28:55;5.90;;;2.70;;
12719;SDS011;6424;48.520;11.228;2022-08-11T05:32:00;4.37;;;2.80;;
12719;SDS011;6424;48.520;11.228;2022-08-11T05:34:50;3.10;;;2.70;;
12719;SDS011;6424;48.520;11.228;2022-08-11T05:37:35;3.07;;;2.77;;
12719;SDS011;6424;48.520;11.228;2022-08-11T05:40:50;3.00;;;2.70;;
12719;SDS011;6424;48.520;11.228;2022-08-11T05:43:52;3.93;;;3.03;;
12719;SDS011;6424;48.520;11.228;2022-08-11T05:46:39;4.50;;;2.57;;
12719;SDS011;6424;48.520;11.228;2022-08-11T05:49:40;6.00;;;2.97;;
12719;SDS011;6424;48.520;11.228;2022-08-11T05:52:44;6.17;;;2.90;;
12719;SDS011;6424;48.520;11.228;2022-08-11T05:55:44;7.03;;;2.97;;
12719;SDS011;6424;48.520;11.228;2022-08-11T05:58:51;5.23;;;2.83;;
12719;SDS011;6424;48.520;11.228;2022-08-11T06:01:34;3.43;;;2.63;;
12719;SDS011;6424;48.520;11.228;2022-08-11T06:04:24;4.20;;;2.80;;
12719;SDS011;6424;48.520;11.228;2022-08-11T06:07:08;3.63;;;2.63;;
12719;SDS011;6424;48.520;11.228;2022-08-11T06:09:51;5.93;;;3.30;;
12719;SDS011;6424;48.520;11.228;2022-08-11T06:12:34;2.90;;;2.40;;
12719;SDS011;6424;48.520;11.228;2022-08-11T06:15:16;5.13;;;2.63;;
12719;SDS011;6424;48.520;11.228;2022-08-11T06:17:57;3.07;;;2.70;;
12719;SDS011;6424;48.520;11.228;2022-08-11T06:20:47;3.40;;;2.80;;
12719;SDS011;6424;48.520;11.228;2022-08-11T06:23:30;3.93;;;2.70;;
12719;SDS011;6424;48.520;11.228;2022-08-11T06:26:12;5.10;;;2.60;;
12719;SDS011;6424;48.520;11.228;2022-08-11T06:28:55;2.73;;;2.53;;
12719;SDS011;6424;48.520;11.228;2022-08-11T06:31:38;4.50;;;2.67;;
12719;SDS011;6424;48.520;11.228;2022-08-11T06:34:27;3.30;;;2.67;;
12719;SDS011;6424;48.520;11.228;2022-08-11T06:37:15;3.43;;;2.80;;
12719;SDS011;6424;48.520;11.228;2022-08-11T06:43:19;3.63;;;2.60;;
12719;SDS011;6424;48.520;11.228;2022-08-11T06:46:04;3.70;;;2.70;;
12719;SDS011;6424;48.520;11.228;2022-08-11T06:48:48;2.80;;;2.60;;
12719;SDS011;6424;48.520;11.228;2022-08-11T06:51:30;3.87;;;2.50;;
12719;SDS011;6424;48.520;11.228;2022-08-11T06:53:59;3.07;;;2.77;;
12719;SDS011;6424;48.520;11.228;2022-08-11T06:56:41;3.43;;;2.87;;
12719;SDS011;6424;48.520;11.228;2022-08-11T06:59:44;4.50;;;2.70;;
12719;SDS011;6424;48.520;11.228;2022-08-11T07:05:48;3.50;;;2.70;;
12719;SDS011;6424;48.520;11.228;2022-08-11T07:14:29;5.60;;;2.60;;
12719;SDS011;6424;48.520;11.228;2022-08-11T07:17:29;4.97;;;2.83;;
12719;SDS011;6424;48.520;11.228;2022-08-11T07:20:14;3.80;;;2.63;;
12719;SDS011;6424;48.520;11.228;2022-08-11T07:23:15;2.73;;;2.50;;
12719;SDS011;6424;48.520;11.228;2022-08-11T07:26:16;3.23;;;2.47;;
12719;SDS011;6424;48.520;11.228;2022-08-11T07:29:17;5.83;;;2.67;;
12719;SDS011;6424;48.520;11.228;2022-08-11T07:32:01;3.20;;;2.73;;
12719;SDS011;6424;48.520;11.228;2022-08-11T07:34:58;2.73;;;2.53;;
12719;SDS011;6424;48.520;11.228;2022-08-11T07:37:46;2.73;;;2.53;;
12719;SDS011;6424;48.520;11.228;2022-08-11T07:40:32;2.63;;;2.33;;
12719;SDS011;6424;48.520;11.228;2022-08-11T07:42:59;2.77;;;2.57;;
12719;SDS011;6424;48.520;11.228;2022-08-11T07:45:44;4.13;;;2.43;;
12719;SDS011;6424;48.520;11.228;2022-08-11T07:48:44;2.87;;;2.40;;
12719;SDS011;6424;48.520;11.228;2022-08-11T07:51:43;7.10;;;2.77;;
12719;SDS011;6424;48.520;11.228;2022-08-11T07:54:43;2.83;;;2.53;;
12719;SDS011;6424;48.520;11.228;2022-08-11T07:57:24;2.30;;;2.07;;
12719;SDS011;6424;48.520;11.228;2022-08-11T08:00:26;2.77;;;2.43;;
12719;SDS011;6424;48.520;11.228;2022-08-11T08:03:26;4.77;;;2.53;;
12719;SDS011;6424;48.520;11.228;2022-08-11T08:06:28;5.37;;;2.43;;
12719;SDS011;6424;48.520;11.228;2022-08-11T08:09:32;2.83;;;2.20;;
12719;SDS011;6424;48.520;11.228;2022-08-11T08:12:32;3.87;;;2.37;;
12719;SDS011;6424;48.520;11.228;2022-08-11T08:15:32;4.00;;;2.40;;
12719;SDS011;6424;48.520;11.228;2022-08-11T08:18:16;3.70;;;2.20;;
12719;SDS011;6424;48.520;11.228;2022-08-11T08:20:58;2.70;;;2.30;;
12719;SDS011;6424;48.520;11.228;2022-08-11T08:23:50;4.90;;;2.10;;
12719;SDS011;6424;48.520;11.228;2022-08-11T08:26:32;2.70;;;2.17;;
12719;SDS011;6424;48.520;11.228;2022-08-11T08:29:33;3.47;;;2.50;;
12719;SDS011;6424;48.520;11.228;2022-08-11T08:32:36;5.13;;;2.43;;
12719;SDS011;6424;48.520;11.228;2022-08-11T08:35:19;2.80;;;2.60;;
12719;SDS011;6424;48.520;11.228;2022-08-11T08:38:00;3.57;;;2.30;;
12719;SDS011;6424;48.520;11.228;2022-08-11T08:40:27;2.50;;;2.10;;
12719;SDS011;6424;48.520;11.228;2022-08-11T08:43:11;4.73;;;2.30;;
12719;SDS011;6424;48.520;11.228;2022-08-11T08:45:55;4.17;;;2.07;;
12719;SDS011;6424;48.520;11.228;2022-08-11T08:48:37;2.37;;;2.10;;
12719;SDS011;6424;48.520;11.228;2022-08-11T08:51:18;5.27;;;2.20;;
12719;SDS011;6424;48.520;11.228;2022-08-11T08:54:18;2.70;;;2.20;;
12719;SDS011;6424;48.520;11.228;2022-08-11T08:57:02;3.03;;;2.27;;
12719;SDS011;6424;48.520;11.228;2022-08-11T08:59:45;3.53;;;2.20;;
12719;SDS011;6424;48.520;11.228;2022-08-11T09:02:28;2.50;;;2.30;;
12719;SDS011;6424;48.520;11.228;2022-08-11T09:05:09;2.97;;;2.10;;
12719;SDS011;6424;48.520;11.228;2022-08-11T09:07:52;6.17;;;2.37;;
12719;SDS011;6424;48.520;11.228;2022-08-11T09:10:34;3.33;;;2.23;;
12719;SDS011;6424;48.520;11.228;2022-08-11T09:13:16;3.90;;;2.23;;
12719;SDS011;6424;48.520;11.228;2022-08-11T09:15:58;1.80;;;1.70;;
12719;SDS011;6424;48.520;11.228;2022-08-11T09:18:39;4.27;;;2.27;;
12719;SDS011;6424;48.520;11.228;2022-08-11T09:21:23;5.13;;;2.00;;
12719;SDS011;6424;48.520;11.228;2022-08-11T09:24:04;2.60;;;2.10;;
12719;SDS011;6424;48.520;11.228;2022-08-11T09:26:50;2.37;;;2.03;;
12719;SDS011;6424;48.520;11.228;2022-08-11T09:29:41;4.23;;;2.23;;
12719;SDS011;6424;48.520;11.228;2022-08-11T09:32:23;3.70;;;2.10;;
12719;SDS011;6424;48.520;11.228;2022-08-11T09:35:04;4.97;;;2.23;;
12719;SDS011;6424;48.520;11.228;2022-08-11T09:37:45;2.10;;;2.00;;
12719;SDS011;6424;48.520;11.228;2022-08-11T09:40:46;2.63;;;2.00;;
12719;SDS011;6424;48.520;11.228;2022-08-11T09:43:29;4.60;;;2.17;;
12719;SDS011;6424;48.520;11.228;2022-08-11T09:46:29;3.07;;;2.00;;
12719;SDS011;6424;48.520;11.228;2022-08-11T09:49:11;3.10;;;1.90;;
12719;SDS011;6424;48.520;11.228;2022-08-11T09:51:53;2.07;;;1.90;;
12719;SDS011;6424;48.520;11.228;2022-08-11T09:54:35;2.00;;;1.90;;
12719;SDS011;6424;48.520;11.228;2022-08-11T09:57:20;2.57;;;2.10;;
12719;SDS011;6424;48.520;11.228;2022-08-11T10:00:19;2.80;;;2.07;;
12719;SDS011;6424;48.520;11.228;2022-08-11T10:02:56;2.00;;;1.90;;
12719;SDS011;6424;48.520;11.228;2022-08-11T10:05:38;2.27;;;1.97;;
12719;SDS011;6424;48.520;11.228;2022-08-11T10:08:42;2.57;;;2.37;;
12719;SDS011;6424;48.520;11.228;2022-08-11T10:11:23;2.90;;;2.10;;
12719;SDS011;6424;48.520;11.228;2022-08-11T10:14:05;3.23;;;1.80;;
12719;SDS011;6424;48.520;11.228;2022-08-11T10:17:07;2.40;;;1.83;;
12719;SDS011;6424;48.520;11.228;2022-08-11T10:19:49;4.27;;;2.00;;
12719;SDS011;6424;48.520;11.228;2022-08-11T10:22:31;3.53;;;2.13;;
12719;SDS011;6424;48.520;11.228;2022-08-11T10:25:44;2.10;;;1.90;;
12719;SDS011;6424;48.520;11.228;2022-08-11T10:28:29;2.10;;;1.70;;
12719;SDS011;6424;48.520;11.228;2022-08-11T10:31:10;1.83;;;1.70;;
12719;SDS011;6424;48.520;11.228;2022-08-11T10:34:11;2.13;;;1.90;;
12719;SDS011;6424;48.520;11.228;2022-08-11T10:36:52;2.60;;;1.90;;
12719;SDS011;6424;48.520;11.228;2022-08-11T10:39:34;3.27;;;2.10;;
12719;SDS011;6424;48.520;11.228;2022-08-11T10:42:16;2.00;;;1.80;;
12719;SDS011;6424;48.520;11.228;2022-08-11T10:45:17;2.90;;;2.20;;
12719;SDS011;6424;48.520;11.228;2022-08-11T10:48:17;3.43;;;1.80;;
12719;SDS011;6424;48.520;11.228;2022-08-11T10:51:00;2.60;;;1.97;;
12719;SDS011;6424;48.520;11.228;2022-08-11T10:53:54;2.70;;;1.97;;
12719;SDS011;6424;48.520;11.228;2022-08-11T10:56:53;3.00;;;2.00;;
12719;SDS011;6424;48.520;11.228;2022-08-11T10:59:53;2.50;;;2.10;;
12719;SDS011;6424;48.520;11.228;2022-08-11T11:02:35;2.30;;;2.10;;
12719;SDS011;6424;48.520;11.228;2022-08-11T11:05:29;2.70;;;2.27;;
12719;SDS011;6424;48.520;11.228;2022-08-11T11:08:11;4.00;;;2.17;;
12719;SDS011;6424;48.520;11.228;2022-08-11T11:11:13;2.50;;;2.30;;
12719;SDS011;6424;48.520;11.228;2022-08-11T11:13:56;5.27;;;2.00;;
12719;SDS011;6424;48.520;11.228;2022-08-11T11:17:12;3.33;;;1.90;;
12719;SDS011;6424;48.520;11.228;2022-08-11T11:20:00;3.10;;;1.90;;
12719;SDS011;6424;48.520;11.228;2022-08-11T11:22:44;2.27;;;1.90;;
12719;SDS011;6424;48.520;11.228;2022-08-11T11:32:15;2.13;;;1.73;;
12719;SDS011;6424;48.520;11.228;2022-08-11T11:37:25;2.40;;;1.90;;
12719;SDS011;6424;48.520;11.228;2022-08-11T11:40:12;2.00;;;1.80;;
12719;SDS011;6424;48.520;11.228;2022-08-11T11:42:55;4.53;;;1.83;;
12719;SDS011;6424;48.520;11.228;2022-08-11T11:45:37;2.03;;;1.80;;
12719;SDS011;6424;48.520;11.228;2022-08-11T11:48:21;2.53;;;1.90;;
12719;SDS011;6424;48.520;11.228;2022-08-11T11:50:47;10.50;;;2.40;;
12719;SDS011;6424;48.520;11.228;2022-08-11T11:53:13;2.53;;;1.73;;
12719;SDS011;6424;48.520;11.228;2022-08-11T11:55:54;3.63;;;2.00;;
12719;SDS011;6424;48.520;11.228;2022-08-11T11:58:37;2.30;;;2.10;;
12719;SDS011;6424;48.520;11.228;2022-08-11T12:01:38;3.77;;;1.80;;
12719;SDS011;6424;48.520;11.228;2022-08-11T12:04:22;1.83;;;1.73;;
12719;SDS011;6424;48.520;11.228;2022-08-11T12:07:04;2.27;;;1.83;;
12719;SDS011;6424;48.520;11.228;2022-08-11T12:10:07;1.87;;;1.60;;
12719;SDS011;6424;48.520;11.228;2022-08-11T12:12:48;2.27;;;1.70;;
12719;SDS011;6424;48.520;11.228;2022-08-11T12:15:48;1.83;;;1.60;;
12719;SDS011;6424;48.520;11.228;2022-08-11T12:18:34;2.70;;;1.90;;
12719;SDS011;6424;48.520;11.228;2022-08-11T12:21:15;2.20;;;1.80;;
12719;SDS011;6424;48.520;11.228;2022-08-11T12:23:57;2.20;;;2.00;;
12719;SDS011;6424;48.520;11.228;2022-08-11T12:26:58;1.63;;;1.50;;
12719;SDS011;6424;48.520;11.228;2022-08-11T12:29:58;2.43;;;1.60;;
12719;SDS011;6424;48.520;11.228;2022-08-11T12:32:44;1.63;;;1.53;;
12719;SDS011;6424;48.520;11.228;2022-08-11T12:35:26;2.00;;;1.73;;
12719;SDS011;6424;48.520;11.228;2022-08-11T12:38:06;3.57;;;1.80;;
12719;SDS011;6424;48.520;11.228;2022-08-11T12:40:48;2.73;;;1.63;;
12719;SDS011;6424;48.520;11.228;2022-08-11T12:43:49;5.60;;;1.70;;
12719;SDS011;6424;48.520;11.228;2022-08-11T12:46:35;4.00;;;1.67;;
12719;SDS011;6424;48.520;11.228;2022-08-11T12:49:18;2.63;;;1.70;;
12719;SDS011;6424;48.520;11.228;2022-08-11T12:52:23;5.27;;;1.90;;
12719;SDS011;6424;48.520;11.228;2022-08-11T12:55:13;1.70;;;1.57;;
12719;SDS011;6424;48.520;11.228;2022-08-11T12:58:16;1.67;;;1.57;;
12719;SDS011;6424;48.520;11.228;2022-08-11T13:00:57;2.47;;;1.50;;
12719;SDS011;6424;48.520;11.228;2022-08-11T13:03:56;2.97;;;1.70;;
12719;SDS011;6424;48.520;11.228;2022-08-11T13:06:56;2.33;;;1.50;;
12719;SDS011;6424;48.520;11.228;2022-08-11T13:09:38;3.43;;;1.87;;
12719;SDS011;6424;48.520;11.228;2022-08-11T13:12:05;3.97;;;1.90;;
12719;SDS011;6424;48.520;11.228;2022-08-11T13:15:05;2.90;;;1.60;;
12719;SDS011;6424;48.520;11.228;2022-08-11T13:17:47;1.50;;;1.40;;
12719;SDS011;6424;48.520;11.228;2022-08-11T13:20:29;2.87;;;1.77;;
12719;SDS011;6424;48.520;11.228;2022-08-11T13:23:11;1.93;;;1.50;;
12719;SDS011;6424;48.520;11.228;2022-08-11T13:25:52;3.03;;;1.60;;
12719;SDS011;6424;48.520;11.228;2022-08-11T13:28:35;2.03;;;1.60;;
12719;SDS011;6424;48.520;11.228;2022-08-11T13:31:16;2.03;;;1.83;;
12719;SDS011;6424;48.520;11.228;2022-08-11T13:33:57;3.33;;;2.53;;
12719;SDS011;6424;48.520;11.228;2022-08-11T13:36:39;3.30;;;1.90;;
12719;SDS011;6424;48.520;11.228;2022-08-11T13:39:21;2.47;;;1.77;;
12719;SDS011;6424;48.520;11.228;2022-08-11T13:42:04;3.50;;;1.37;;
12719;SDS011;6424;48.520;11.228;2022-08-11T13:44:45;2.63;;;1.60;;
12719;SDS011;6424;48.520;11.228;2022-08-11T13:47:27;2.33;;;1.63;;
12719;SDS011;6424;48.520;11.228;2022-08-11T13:50:09;2.10;;;1.67;;
12719;SDS011;6424;48.520;11.228;2022-08-11T13:52:52;3.20;;;1.47;;
12719;SDS011;6424;48.520;11.228;2022-08-11T13:55:33;2.27;;;1.50;;
12719;SDS011;6424;48.520;11.228;2022-08-11T13:58:14;2.90;;;1.23;;
12719;SDS011;6424;48.520;11.228;2022-08-11T14:00:55;1.63;;;1.20;;
12719;SDS011;6424;48.520;11.228;2022-08-11T14:03:38;1.90;;;1.43;;
12719;SDS011;6424;48.520;11.228;2022-08-11T14:06:21;3.70;;;1.73;;
12719;SDS011;6424;48.520;11.228;2022-08-11T14:09:03;2.37;;;1.40;;
12719;SDS011;6424;48.520;11.228;2022-08-11T14:11:48;1.50;;;1.40;;
12719;SDS011;6424;48.520;11.228;2022-08-11T14:14:51;1.93;;;1.53;;
12719;SDS011;6424;48.520;11.228;2022-08-11T14:17:32;1.50;;;1.40;;
12719;SDS011;6424;48.520;11.228;2022-08-11T14:20:00;2.17;;;1.60;;
12719;SDS011;6424;48.520;11.228;2022-08-11T14:22:45;1.27;;;1.17;;
12719;SDS011;6424;48.520;11.228;2022-08-11T14:25:28;2.23;;;1.40;;
12719;SDS011;6424;48.520;11.228;2022-08-11T14:27:55;1.47;;;1.30;;
12719;SDS011;6424;48.520;11.228;2022-08-11T14:30:36;2.00;;;1.40;;
12719;SDS011;6424;48.520;11.228;2022-08-11T14:33:35;1.43;;;1.33;;
12719;SDS011;6424;48.520;11.228;2022-08-11T14:36:17;1.60;;;1.50;;
12719;SDS011;6424;48.520;11.228;2022-08-11T14:39:00;2.00;;;1.70;;
12719;SDS011;6424;48.520;11.228;2022-08-11T14:41:45;3.37;;;1.60;;
12719;SDS011;6424;48.520;11.228;2022-08-11T14:44:53;2.00;;;1.30;;
12719;SDS011;6424;48.520;11.228;2022-08-11T14:47:43;2.23;;;1.30;;
12719;SDS011;6424;48.520;11.228;2022-08-11T14:50:28;2.43;;;1.10;;
12719;SDS011;6424;48.520;11.228;2022-08-11T14:53:11;2.13;;;1.70;;
12719;SDS011;6424;48.520;11.228;2022-08-11T14:55:54;1.47;;;1.37;;
12719;SDS011;6424;48.520;11.228;2022-08-11T14:58:53;2.13;;;1.37;;
12719;SDS011;6424;48.520;11.228;2022-08-11T15:01:34;2.60;;;1.27;;
12719;SDS011;6424;48.520;11.228;2022-08-11T15:04:50;3.67;;;1.30;;
12719;SDS011;6424;48.520;11.228;2022-08-11T15:07:32;1.93;;;1.37;;
12719;SDS011;6424;48.520;11.228;2022-08-11T15:13:19;2.30;;;1.17;;
12719;SDS011;6424;48.520;11.228;2022-08-11T15:16:00;5.87;;;1.60;;
12719;SDS011;6424;48.520;11.228;2022-08-11T15:18:59;2.30;;;1.30;;
12719;SDS011;6424;48.520;11.228;2022-08-11T15:21:41;2.70;;;1.23;;
12719;SDS011;6424;48.520;11.228;2022-08-11T15:24:40;1.80;;;1.30;;
12719;SDS011;6424;48.520;11.228;2022-08-11T15:27:08;1.97;;;1.20;;
12719;SDS011;6424;48.520;11.228;2022-08-11T15:30:11;1.67;;;1.30;;
12719;SDS011;6424;48.520;11.228;2022-08-11T15:33:11;1.93;;;1.40;;
12719;SDS011;6424;48.520;11.228;2022-08-11T15:36:00;1.20;;;1.10;;
12719;SDS011;6424;48.520;11.228;2022-08-11T15:39:12;2.10;;;1.53;;
12719;SDS011;6424;48.520;11.228;2022-08-11T15:42:06;1.63;;;1.23;;
12719;SDS011;6424;48.520;11.228;2022-08-11T15:45:10;1.33;;;1.23;;
12719;SDS011;6424;48.520;11.228;2022-08-11T15:48:12;1.33;;;1.23;;
12719;SDS011;6424;48.520;11.228;2022-08-11T15:50:59;1.80;;;1.50;;
12719;SDS011;6424;48.520;11.228;2022-08-11T15:53:50;2.40;;;1.53;;
12719;SDS011;6424;48.520;11.228;2022-08-11T15:56:34;2.50;;;1.63;;
12719;SDS011;6424;48.520;11.228;2022-08-11T15:59:19;1.57;;;1.40;;
12719;SDS011;6424;48.520;11.228;2022-08-11T16:02:19;5.27;;;1.43;;
12719;SDS011;6424;48.520;11.228;2022-08-11T16:05:21;3.07;;;1.47;;
12719;SDS011;6424;48.520;11.228;2022-08-11T16:08:03;2.27;;;1.37;;
12719;SDS011;6424;48.520;11.228;2022-08-11T16:10:44;1.40;;;1.30;;
12719;SDS011;6424;48.520;11.228;2022-08-11T16:13:25;1.70;;;1.47;;
12719;SDS011;6424;48.520;11.228;2022-08-11T16:16:08;2.43;;;1.67;;
12719;SDS011;6424;48.520;11.228;2022-08-11T16:18:43;2.67;;;1.47;;
12719;SDS011;6424;48.520;11.228;2022-08-11T16:21:34;2.50;;;1.50;;
12719;SDS011;6424;48.520;11.228;2022-08-11T16:24:19;1.73;;;1.30;;
12719;SDS011;6424;48.520;11.228;2022-08-11T16:27:02;2.73;;;1.40;;
12719;SDS011;6424;48.520;11.228;2022-08-11T16:29:30;1.93;;;1.40;;
12719;SDS011;6424;48.520;11.228;2022-08-11T16:32:14;1.67;;;1.40;;
12719;SDS011;6424;48.520;11.228;2022-08-11T16:35:02;1.97;;;1.30;;
12719;SDS011;6424;48.520;11.228;2022-08-11T16:38:05;1.53;;;1.37;;
12719;SDS011;6424;48.520;11.228;2022-08-11T16:41:09;2.90;;;1.30;;
12719;SDS011;6424;48.520;11.228;2022-08-11T16:43:52;2.80;;;1.60;;
12719;SDS011;6424;48.520;11.228;2022-08-11T16:46:51;1.70;;;1.60;;
12719;SDS011;6424;48.520;11.228;2022-08-11T16:49:43;2.07;;;1.30;;
12719;SDS011;6424;48.520;11.228;2022-08-11T16:52:26;3.13;;;1.70;;
12719;SDS011;6424;48.520;11.228;2022-08-11T16:55:07;3.63;;;1.53;;
12719;SDS011;6424;48.520;11.228;2022-08-11T16:57:48;1.30;;;1.17;;
12719;SDS011;6424;48.520;11.228;2022-08-11T17:00:48;3.87;;;1.43;;
12719;SDS011;6424;48.520;11.228;2022-08-11T17:03:30;3.70;;;1.53;;
12719;SDS011;6424;48.520;11.228;2022-08-11T17:06:17;1.53;;;1.33;;
12719;SDS011;6424;48.520;11.228;2022-08-11T17:09:04;3.97;;;1.23;;
12719;SDS011;6424;48.520;11.228;2022-08-11T17:12:05;4.13;;;1.50;;
12719;SDS011;6424;48.520;11.228;2022-08-11T17:15:09;2.80;;;1.20;;
12719;SDS011;6424;48.520;11.228;2022-08-11T17:18:13;1.97;;;1.40;;
12719;SDS011;6424;48.520;11.228;2022-08-11T17:24:15;2.57;;;1.40;;
12719;SDS011;6424;48.520;11.228;2022-08-11T17:26:56;2.53;;;1.50;;
12719;SDS011;6424;48.520;11.228;2022-08-11T17:29:41;2.33;;;1.47;;
12719;SDS011;6424;48.520;11.228;2022-08-11T17:32:22;4.60;;;1.60;;
12719;SDS011;6424;48.520;11.228;2022-08-11T17:35:28;1.70;;;1.30;;
12719;SDS011;6424;48.520;11.228;2022-08-11T17:38:18;3.90;;;1.57;;
12719;SDS011;6424;48.520;11.228;2022-08-11T17:41:02;1.37;;;1.27;;
12719;SDS011;6424;48.520;11.228;2022-08-11T17:44:02;2.00;;;1.40;;
12719;SDS011;6424;48.520;11.228;2022-08-11T17:47:02;1.83;;;1.40;;
12719;SDS011;6424;48.520;11.228;2022-08-11T17:50:02;3.47;;;1.20;;
12719;SDS011;6424;48.520;11.228;2022-08-11T17:52:45;1.70;;;1.50;;
12719;SDS011;6424;48.520;11.228;2022-08-11T17:55:31;4.27;;;1.50;;
12719;SDS011;6424;48.520;11.228;2022-08-11T17:58:33;1.87;;;1.43;;
12719;SDS011;6424;48.520;11.228;2022-08-11T18:01:18;5.73;;;1.50;;
12719;SDS011;6424;48.520;11.228;2022-08-11T18:04:05;1.50;;;1.40;;
12719;SDS011;6424;48.520;11.228;2022-08-11T18:06:48;2.70;;;1.40;;
12719;SDS011;6424;48.520;11.228;2022-08-11T18:09:31;1.53;;;1.40;;
12719;SDS011;6424;48.520;11.228;2022-08-11T18:12:30;2.87;;;1.50;;
12719;SDS011;6424;48.520;11.228;2022-08-11T18:15:29;3.37;;;1.60;;
12719;SDS011;6424;48.520;11.228;2022-08-11T18:18:14;5.70;;;1.60;;
12719;SDS011;6424;48.520;11.228;2022-08-11T18:21:14;3.00;;;1.30;;
12719;SDS011;6424;48.520;11.228;2022-08-11T18:24:14;1.83;;;1.40;;
12719;SDS011;6424;48.520;11.228;2022-08-11T18:27:15;1.57;;;1.40;;
12719;SDS011;6424;48.520;11.228;2022-08-11T18:30:16;2.37;;;1.53;;
12719;SDS011;6424;48.520;11.228;2022-08-11T18:33:16;2.37;;;1.77;;
12719;SDS011;6424;48.520;11.228;2022-08-11T18:36:20;1.47;;;1.37;;
12719;SDS011;6424;48.520;11.228;2022-08-11T18:39:25;1.60;;;1.47;;
12719;SDS011;6424;48.520;11.228;2022-08-11T18:42:28;2.43;;;1.37;;
12719;SDS011;6424;48.520;11.228;2022-08-11T18:45:30;2.23;;;1.60;;
12719;SDS011;6424;48.520;11.228;2022-08-11T18:48:30;3.37;;;1.70;;
12719;SDS011;6424;48.520;11.228;2022-08-11T18:51:32;2.20;;;1.60;;
12719;SDS011;6424;48.520;11.228;2022-08-11T18:54:36;1.50;;;1.40;;
12719;SDS011;6424;48.520;11.228;2022-08-11T18:57:38;1.87;;;1.50;;
12719;SDS011;6424;48.520;11.228;2022-08-11T19:00:39;2.93;;;1.40;;
12719;SDS011;6424;48.520;11.228;2022-08-11T19:03:40;2.90;;;1.50;;
12719;SDS011;6424;48.520;11.228;2022-08-11T19:06:41;2.60;;;1.60;;
12719;SDS011;6424;48.520;11.228;2022-08-11T19:09:43;2.17;;;1.50;;
12719;SDS011;6424;48.520;11.228;2022-08-11T19:12:44;3.93;;;1.50;;
12719;SDS011;6424;48.520;11.228;2022-08-11T19:15:44;3.30;;;1.60;;
12719;SDS011;6424;48.520;11.228;2022-08-11T19:18:46;3.90;;;1.67;;
12719;SDS011;6424;48.520;11.228;2022-08-11T19:21:48;2.30;;;1.70;;
12719;SDS011;6424;48.520;11.228;2022-08-11T19:24:49;3.00;;;1.47;;
12719;SDS011;6424;48.520;11.228;2022-08-11T19:27:50;2.43;;;1.60;;
12719;SDS011;6424;48.520;11.228;2022-08-11T19:30:52;3.10;;;1.60;;
12719;SDS011;6424;48.520;11.228;2022-08-11T19:33:53;2.00;;;1.47;;
12719;SDS011;6424;48.520;11.228;2022-08-11T19:36:54;3.60;;;1.50;;
12719;SDS011;6424;48.520;11.228;2022-08-11T19:39:55;2.33;;;1.70;;
12719;SDS011;6424;48.520;11.228;2022-08-11T19:42:59;2.30;;;1.60;;
12719;SDS011;6424;48.520;11.228;2022-08-11T19:45:59;3.70;;;1.70;;
12719;SDS011;6424;48.520;11.228;2022-08-11T19:48:59;2.27;;;1.50;;
12719;SDS011;6424;48.520;11.228;2022-08-11T19:52:00;2.70;;;1.57;;
12719;SDS011;6424;48.520;11.228;2022-08-11T19:55:02;1.47;;;1.37;;
12719;SDS011;6424;48.520;11.228;2022-08-11T19:57:48;3.30;;;2.00;;
12719;SDS011;6424;48.520;11.228;2022-08-11T20:00:48;1.60;;;1.50;;
12719;SDS011;6424;48.520;11.228;2022-08-11T20:03:48;1.90;;;1.70;;
12719;SDS011;6424;48.520;11.228;2022-08-11T20:06:47;1.77;;;1.60;;
12719;SDS011;6424;48.520;11.228;2022-08-11T20:09:48;4.83;;;1.97;;
12719;SDS011;6424;48.520;11.228;2022-08-11T20:12:48;3.13;;;1.50;;
12719;SDS011;6424;48.520;11.228;2022-08-11T20:15:49;1.53;;;1.43;;
12719;SDS011;6424;48.520;11.228;2022-08-11T20:18:50;2.13;;;1.40;;
12719;SDS011;6424;48.520;11.228;2022-08-11T20:21:51;2.10;;;1.67;;
12719;SDS011;6424;48.520;11.228;2022-08-11T20:24:53;1.90;;;1.77;;
12719;SDS011;6424;48.520;11.228;2022-08-11T20:27:53;4.77;;;1.60;;
12719;SDS011;6424;48.520;11.228;2022-08-11T20:30:54;4.30;;;1.67;;
12719;SDS011;6424;48.520;11.228;2022-08-11T20:33:53;3.27;;;1.80;;
12719;SDS011;6424;48.520;11.228;2022-08-11T20:36:39;2.87;;;1.70;;
12719;SDS011;6424;48.520;11.228;2022-08-11T20:39:25;1.97;;;1.67;;